createdAt,value
2023-04-16T00:01:44.531Z,4.60
2023-04-16T00:04:12.692Z,4.00
2023-04-16T00:06:41.136Z,4.80
2023-04-16T00:09:09.285Z,3.20
2023-04-16T00:11:37.483Z,4.50
2023-04-16T00:14:05.964Z,4.20
2023-04-16T00:16:34.158Z,3.80
2023-04-16T00:19:02.057Z,4.90
2023-04-16T00:21:31.303Z,6.90
2023-04-16T00:23:59.272Z,8.10
2023-04-16T00:26:27.330Z,6.40
2023-04-16T00:28:55.616Z,5.40
2023-04-16T00:31:31.224Z,5.20
2023-04-16T00:34:00.061Z,4.40
2023-04-16T00:36:29.140Z,5.70
2023-04-16T00:38:57.426Z,7.10
2023-04-16T00:41:26.407Z,6.30
2023-04-16T00:43:54.273Z,7.60
2023-04-16T00:46:23.941Z,7.00
2023-04-16T00:48:54.374Z,9.30
2023-04-16T00:51:22.701Z,6.80
2023-04-16T00:53:51.165Z,4.80
2023-04-16T00:56:20.484Z,5.10
2023-04-16T00:58:50.274Z,4.80
2023-04-16T01:01:18.386Z,5.40
2023-04-16T01:03:48.451Z,5.00
2023-04-16T01:06:19.500Z,5.70
2023-04-16T01:08:48.724Z,4.30
2023-04-16T01:11:16.890Z,5.20
2023-04-16T01:13:45.065Z,4.60
2023-04-16T01:16:13.433Z,5.70
2023-04-16T01:18:42.670Z,7.00
2023-04-16T01:21:10.805Z,4.00
2023-04-16T01:23:38.868Z,6.10
2023-04-16T01:26:06.956Z,7.90
2023-04-16T01:28:35.423Z,6.30
2023-04-16T01:31:03.782Z,6.10
2023-04-16T01:33:55.237Z,6.20
2023-04-16T01:36:23.805Z,4.60
2023-04-16T01:38:51.866Z,3.60
2023-04-16T01:41:20.044Z,4.70
2023-04-16T01:43:48.094Z,4.70
2023-04-16T01:46:27.194Z,6.60
2023-04-16T01:48:55.536Z,4.40
2023-04-16T01:51:24.209Z,5.90
2023-04-16T01:53:52.277Z,6.60
2023-04-16T01:56:20.621Z,8.50
2023-04-16T01:58:48.840Z,8.80
2023-04-16T02:01:18.265Z,8.60
2023-04-16T02:03:47.789Z,18.00
2023-04-16T02:06:16.644Z,14.10
2023-04-16T02:08:44.803Z,9.70
2023-04-16T02:11:13.083Z,7.30
2023-04-16T02:13:41.036Z,9.30
2023-04-16T02:16:09.231Z,6.50
2023-04-16T02:19:04.726Z,9.10
2023-04-16T02:21:34.541Z,8.50
2023-04-16T02:24:02.909Z,8.20
2023-04-16T02:26:31.920Z,10.80
2023-04-16T02:29:05.188Z,6.10
2023-04-16T02:31:40.060Z,6.00
2023-04-16T02:34:08.607Z,7.60
2023-04-16T02:36:36.804Z,6.00
2023-04-16T02:39:05.353Z,9.10
2023-04-16T02:41:33.309Z,6.20
2023-04-16T02:44:01.821Z,10.00
2023-04-16T02:46:30.021Z,9.00
2023-04-16T02:48:58.164Z,12.40
2023-04-16T02:51:26.539Z,5.00
2023-04-16T02:53:54.611Z,11.60
2023-04-16T02:56:22.776Z,8.10
2023-04-16T02:58:50.861Z,7.10
2023-04-16T03:01:19.097Z,5.00
2023-04-16T03:03:47.215Z,8.00
2023-04-16T03:06:15.782Z,5.90
2023-04-16T03:08:43.854Z,5.20
2023-04-16T03:11:12.126Z,6.80
2023-04-16T03:13:40.085Z,16.70
2023-04-16T03:16:08.390Z,11.70
2023-04-16T03:18:36.391Z,9.10
2023-04-16T03:21:05.143Z,5.10
2023-04-16T03:23:33.392Z,5.60
2023-04-16T03:26:01.349Z,6.00
2023-04-16T03:28:30.461Z,7.20
2023-04-16T03:30:59.593Z,6.00
2023-04-16T03:33:27.824Z,5.60
2023-04-16T03:35:57.444Z,4.00
2023-04-16T03:38:27.168Z,4.70
2023-04-16T03:40:56.965Z,4.70
2023-04-16T03:43:25.752Z,7.00
2023-04-16T03:45:54.029Z,6.30
2023-04-16T03:48:23.427Z,6.40
2023-04-16T03:50:51.388Z,5.20
2023-04-16T03:53:20.690Z,6.20
2023-04-16T03:55:52.522Z,6.90
2023-04-16T03:58:21.319Z,5.10
2023-04-16T04:00:49.488Z,5.50
2023-04-16T04:03:18.752Z,4.40
2023-04-16T04:05:48.368Z,5.10
2023-04-16T04:08:20.071Z,6.10
2023-04-16T04:10:48.349Z,10.50
2023-04-16T04:13:16.822Z,6.90
2023-04-16T04:15:45.108Z,9.50
2023-04-16T04:18:13.079Z,6.00
2023-04-16T04:20:41.588Z,7.60
2023-04-16T04:23:09.733Z,10.00
2023-04-16T04:25:37.899Z,8.30
2023-04-16T04:28:06.074Z,8.40
2023-04-16T04:30:36.032Z,7.40
2023-04-16T04:33:04.364Z,5.20
2023-04-16T04:35:33.461Z,6.50
2023-04-16T04:38:03.063Z,5.70
2023-04-16T04:40:31.646Z,7.70
2023-04-16T04:42:59.710Z,7.50
2023-04-16T04:45:29.602Z,9.40
2023-04-16T04:47:59.610Z,6.20
2023-04-16T04:50:27.622Z,6.50
2023-04-16T04:52:55.782Z,8.60
2023-04-16T04:55:24.054Z,9.10
2023-04-16T04:57:52.137Z,8.50
2023-04-16T05:00:21.324Z,9.30
2023-04-16T05:02:54.128Z,8.40
2023-04-16T05:05:22.376Z,11.70
2023-04-16T05:07:50.757Z,13.10
2023-04-16T05:10:18.840Z,10.00
2023-04-16T05:12:49.577Z,10.10
2023-04-16T05:15:17.745Z,9.50
2023-04-16T05:17:46.074Z,8.90
2023-04-16T05:20:14.447Z,12.80
2023-04-16T05:22:42.469Z,12.40
2023-04-16T05:25:10.454Z,9.70
2023-04-16T05:27:38.669Z,10.30
2023-04-16T05:30:08.170Z,11.80
2023-04-16T05:32:36.769Z,11.60
2023-04-16T05:35:05.788Z,11.00
2023-04-16T05:37:33.862Z,8.90
2023-04-16T05:40:01.801Z,10.80
2023-04-16T05:42:29.900Z,9.30
2023-04-16T05:44:57.969Z,12.30
2023-04-16T05:47:26.101Z,15.60
2023-04-16T05:49:54.211Z,11.80
2023-04-16T05:52:22.290Z,10.80
2023-04-16T05:54:50.318Z,13.90
2023-04-16T05:57:18.421Z,14.10
2023-04-16T05:59:46.288Z,12.60
2023-04-16T06:02:14.452Z,13.40
2023-04-16T06:04:42.635Z,12.30
2023-04-16T06:07:10.813Z,12.70
2023-04-16T06:09:38.901Z,13.30
2023-04-16T06:12:06.949Z,11.40
2023-04-16T06:14:34.910Z,12.00
2023-04-16T06:17:02.982Z,13.30
2023-04-16T06:19:31.057Z,11.00
2023-04-16T06:21:59.745Z,10.90
2023-04-16T06:24:27.916Z,11.50
2023-04-16T06:26:55.885Z,14.00
2023-04-16T06:29:30.670Z,11.10
2023-04-16T06:32:08.743Z,10.30
2023-04-16T06:34:38.632Z,11.70
2023-04-16T06:37:09.104Z,12.10
2023-04-16T06:39:38.602Z,12.00
2023-04-16T06:42:06.757Z,10.70
2023-04-16T06:44:36.032Z,11.30
2023-04-16T06:47:04.186Z,12.50
2023-04-16T06:49:32.406Z,16.30
2023-04-16T06:52:00.968Z,10.40
2023-04-16T06:54:28.923Z,10.60
2023-04-16T06:56:56.851Z,10.00
2023-04-16T06:59:25.170Z,11.40
2023-04-16T07:01:53.296Z,11.10
2023-04-16T07:04:21.909Z,9.50
2023-04-16T07:06:50.100Z,12.30
2023-04-16T07:09:18.177Z,11.90
2023-04-16T07:11:46.728Z,10.70
2023-04-16T07:14:14.933Z,14.00
2023-04-16T07:16:42.969Z,11.90
2023-04-16T07:19:11.603Z,9.70
2023-04-16T07:21:42.212Z,10.20
2023-04-16T07:24:14.097Z,9.40
2023-04-16T07:26:42.000Z,11.30
2023-04-16T07:29:10.022Z,15.10
2023-04-16T07:31:38.885Z,9.70
2023-04-16T07:34:07.272Z,9.90
2023-04-16T07:36:35.450Z,11.40
2023-04-16T07:39:05.805Z,10.10
2023-04-16T07:41:34.349Z,9.70
2023-04-16T07:44:02.502Z,11.80
2023-04-16T07:46:39.736Z,10.60
2023-04-16T07:49:14.253Z,8.90
2023-04-16T07:51:42.527Z,10.20
2023-04-16T07:54:11.193Z,7.10
2023-04-16T07:56:39.575Z,8.00
2023-04-16T07:59:20.934Z,6.60
2023-04-16T08:01:50.744Z,8.70
2023-04-16T08:04:25.087Z,6.20
2023-04-16T08:06:54.689Z,5.10
2023-04-16T08:09:24.322Z,4.50
2023-04-16T08:11:52.470Z,3.30
2023-04-16T08:14:20.765Z,3.70
2023-04-16T08:16:50.151Z,5.20
2023-04-16T08:19:18.625Z,4.00
2023-04-16T08:21:47.539Z,3.20
2023-04-16T08:24:15.712Z,3.70
2023-04-16T08:26:43.877Z,4.50
2023-04-16T08:29:12.122Z,3.00
2023-04-16T08:31:41.607Z,2.10
2023-04-16T08:34:11.677Z,1.90
2023-04-16T08:36:41.385Z,2.10
2023-04-16T08:39:09.844Z,2.60
2023-04-16T08:41:42.351Z,5.00
2023-04-16T08:44:19.265Z,4.10
2023-04-16T08:46:48.318Z,4.70
2023-04-16T08:49:20.509Z,3.40
2023-04-16T08:51:52.275Z,2.60
2023-04-16T08:54:26.534Z,3.70
2023-04-16T08:56:57.778Z,2.90
2023-04-16T08:59:27.285Z,2.40
2023-04-16T09:01:59.860Z,2.60
2023-04-16T09:04:29.317Z,2.20
2023-04-16T09:06:58.973Z,2.50
2023-04-16T09:09:28.703Z,3.10
2023-04-16T09:11:56.770Z,3.30
2023-04-16T09:14:25.544Z,3.10
2023-04-16T09:16:57.499Z,3.30
2023-04-16T09:19:26.185Z,2.40
2023-04-16T09:21:54.360Z,4.10
2023-04-16T09:24:23.060Z,2.80
2023-04-16T09:26:52.819Z,1.90
2023-04-16T09:29:38.143Z,2.70
2023-04-16T09:32:11.739Z,2.90
2023-04-16T09:34:59.865Z,2.90
2023-04-16T09:37:32.143Z,4.10
2023-04-16T09:40:02.608Z,3.80
2023-04-16T09:42:32.486Z,5.40
2023-04-16T09:45:02.798Z,5.00
2023-04-16T09:47:44.780Z,2.90
2023-04-16T09:50:18.633Z,3.10
2023-04-16T09:52:51.535Z,3.90
2023-04-16T09:55:27.176Z,4.30
2023-04-16T09:58:02.311Z,2.70
2023-04-16T10:00:31.703Z,2.50
2023-04-16T10:03:07.234Z,4.90
2023-04-16T10:05:35.848Z,3.20
2023-04-16T10:08:12.212Z,4.50
2023-04-16T10:10:40.636Z,4.00
2023-04-16T10:13:08.930Z,3.20
2023-04-16T10:15:37.514Z,3.60
2023-04-16T10:18:06.940Z,2.90
2023-04-16T10:20:35.799Z,3.70
2023-04-16T10:23:04.092Z,3.80
2023-04-16T10:25:33.141Z,2.50
2023-04-16T10:28:01.952Z,3.50
2023-04-16T10:30:30.441Z,4.60
2023-04-16T10:33:00.678Z,2.90
2023-04-16T10:35:30.677Z,3.60
2023-04-16T10:38:22.344Z,3.80
2023-04-16T10:40:50.775Z,2.80
2023-04-16T10:43:19.668Z,3.10
2023-04-16T10:45:48.661Z,2.70
2023-04-16T10:48:19.183Z,3.10
2023-04-16T10:50:58.002Z,3.30
2023-04-16T10:53:27.722Z,3.60
2023-04-16T10:56:05.609Z,2.90
2023-04-16T10:58:36.326Z,4.00
2023-04-16T11:01:12.521Z,3.30
2023-04-16T11:03:47.157Z,2.90
2023-04-16T11:06:18.114Z,4.00
2023-04-16T11:08:54.583Z,2.40
2023-04-16T11:11:24.043Z,3.00
2023-04-16T11:13:56.548Z,3.90
2023-04-16T11:16:26.351Z,3.20
2023-04-16T11:18:56.710Z,3.20
2023-04-16T11:21:25.447Z,2.90
2023-04-16T11:23:53.919Z,5.60
2023-04-16T11:26:30.818Z,2.70
2023-04-16T11:29:00.449Z,2.50
2023-04-16T11:31:28.775Z,4.30
2023-04-16T11:33:57.335Z,2.00
2023-04-16T11:36:27.723Z,2.20
2023-04-16T11:39:03.774Z,2.70
2023-04-16T11:41:31.936Z,1.90
2023-04-16T11:43:59.989Z,5.80
2023-04-16T11:46:40.023Z,3.10
2023-04-16T11:49:08.347Z,2.20
2023-04-16T11:51:45.803Z,4.80
2023-04-16T11:54:21.150Z,2.30
2023-04-16T11:56:53.219Z,2.20
2023-04-16T11:59:23.686Z,2.50
2023-04-16T12:01:56.370Z,3.60
2023-04-16T12:04:27.310Z,2.00
2023-04-16T12:07:06.946Z,2.20
2023-04-16T12:09:38.720Z,2.60
2023-04-16T12:12:31.163Z,2.70
2023-04-16T12:15:03.816Z,2.60
2023-04-16T12:17:34.041Z,1.20
2023-04-16T12:20:11.158Z,2.10
2023-04-16T12:22:41.517Z,2.40
2023-04-16T12:25:14.419Z,1.10
2023-04-16T12:27:53.272Z,2.70
2023-04-16T12:30:24.439Z,1.90
2023-04-16T12:33:13.270Z,1.10
2023-04-16T12:35:43.516Z,1.40
2023-04-16T12:38:12.327Z,1.70
2023-04-16T12:40:40.698Z,1.70
2023-04-16T12:43:10.588Z,2.70
2023-04-16T12:45:39.782Z,3.30
2023-04-16T12:48:08.087Z,2.30
2023-04-16T12:50:36.359Z,1.70
2023-04-16T12:53:04.324Z,2.10
2023-04-16T12:55:32.511Z,1.70
2023-04-16T12:58:01.132Z,1.90
2023-04-16T13:00:29.254Z,1.30
2023-04-16T13:02:57.315Z,1.80
2023-04-16T13:05:25.912Z,1.70
2023-04-16T13:07:54.302Z,2.50
2023-04-16T13:10:23.754Z,2.10
2023-04-16T13:12:52.076Z,3.00
2023-04-16T13:15:20.657Z,1.90
2023-04-16T13:17:48.787Z,1.40
2023-04-16T13:20:16.902Z,1.10
2023-04-16T13:22:45.179Z,2.20
2023-04-16T13:25:13.260Z,4.60
2023-04-16T13:27:41.732Z,1.50
2023-04-16T13:30:10.410Z,2.00
2023-04-16T13:32:38.616Z,2.50
2023-04-16T13:35:07.213Z,3.40
2023-04-16T13:37:35.236Z,2.10
2023-04-16T13:40:03.530Z,4.10
2023-04-16T13:42:32.501Z,3.50
2023-04-16T13:45:01.384Z,2.60
2023-04-16T13:47:29.466Z,2.20
2023-04-16T13:49:57.633Z,3.40
2023-04-16T13:52:25.916Z,3.60
2023-04-16T13:54:54.192Z,3.00
2023-04-16T13:57:22.970Z,3.10
2023-04-16T13:59:51.047Z,4.80
2023-04-16T14:02:20.475Z,1.70
2023-04-16T14:04:49.427Z,7.00
2023-04-16T14:07:17.517Z,2.90
2023-04-16T14:09:45.780Z,3.70
2023-04-16T14:12:13.950Z,3.80
2023-04-16T14:14:42.221Z,2.40
2023-04-16T14:17:10.912Z,4.20
2023-04-16T14:19:39.397Z,4.30
2023-04-16T14:22:09.378Z,2.50
2023-04-16T14:24:37.648Z,2.50
2023-04-16T14:27:08.500Z,5.00
2023-04-16T14:29:36.897Z,1.80
2023-04-16T14:32:05.876Z,4.30
2023-04-16T14:34:34.077Z,1.50
2023-04-16T14:37:02.475Z,2.90
2023-04-16T14:39:31.234Z,3.70
2023-04-16T14:41:59.298Z,2.60
2023-04-16T14:44:27.465Z,2.30
2023-04-16T14:46:56.053Z,1.80
2023-04-16T14:49:24.330Z,2.50
2023-04-16T14:51:52.512Z,4.50
2023-04-16T14:54:20.651Z,2.20
2023-04-16T14:56:49.559Z,2.10
2023-04-16T14:59:17.640Z,3.60
2023-04-16T15:01:46.528Z,4.10
2023-04-16T15:04:15.072Z,1.70
2023-04-16T15:06:43.426Z,3.00
2023-04-16T15:09:11.760Z,1.40
2023-04-16T15:11:39.831Z,3.20
2023-04-16T15:14:07.814Z,1.90
2023-04-16T15:16:35.953Z,0.90
2023-04-16T15:19:05.142Z,2.20
2023-04-16T15:21:33.451Z,0.90
2023-04-16T15:24:01.510Z,1.60
2023-04-16T15:26:30.730Z,1.40
2023-04-16T15:28:58.680Z,1.70
2023-04-16T15:31:26.872Z,2.20
2023-04-16T15:33:56.312Z,1.80
2023-04-16T15:36:24.430Z,1.60
2023-04-16T15:38:52.907Z,0.60
2023-04-16T15:41:21.215Z,1.60
2023-04-16T15:43:49.677Z,1.50
2023-04-16T15:46:17.921Z,1.30
2023-04-16T15:48:46.173Z,0.80
2023-04-16T15:51:14.382Z,10.60
2023-04-16T15:53:44.927Z,31.00
2023-04-16T15:56:12.881Z,22.00
2023-04-16T15:58:41.465Z,9.20
2023-04-16T16:01:09.645Z,5.70
2023-04-16T16:03:37.795Z,5.70
2023-04-16T16:06:08.577Z,4.40
2023-04-16T16:08:38.414Z,3.80
2023-04-16T16:11:07.149Z,3.80
2023-04-16T16:13:37.170Z,3.50
2023-04-16T16:16:06.075Z,1.90
2023-04-16T16:18:34.118Z,3.40
2023-04-16T16:21:02.348Z,3.60
2023-04-16T16:23:30.681Z,3.80
2023-04-16T16:25:58.855Z,5.00
2023-04-16T16:28:27.329Z,2.80
2023-04-16T16:30:55.857Z,3.70
2023-04-16T16:33:23.874Z,2.20
2023-04-16T16:35:51.930Z,2.30
2023-04-16T16:38:20.233Z,1.90
2023-04-16T16:40:48.407Z,4.20
2023-04-16T16:43:17.179Z,3.40
2023-04-16T16:45:46.794Z,3.90
2023-04-16T16:48:14.867Z,4.90
2023-04-16T16:50:42.832Z,6.30
2023-04-16T16:53:11.004Z,4.20
2023-04-16T16:55:39.511Z,4.60
2023-04-16T16:58:07.862Z,3.40
2023-04-16T17:00:36.170Z,3.60
2023-04-16T17:03:04.435Z,3.30
2023-04-16T17:05:32.794Z,3.20
2023-04-16T17:08:00.820Z,4.00
2023-04-16T17:10:28.938Z,4.90
2023-04-16T17:15:25.466Z,3.10
2023-04-16T17:17:53.904Z,4.80
2023-04-16T17:20:22.338Z,4.10
2023-04-16T17:22:51.357Z,4.70
2023-04-16T17:25:19.422Z,4.80
2023-04-16T17:27:47.485Z,4.90
2023-04-16T17:30:17.098Z,6.70
2023-04-16T17:32:45.132Z,5.80
2023-04-16T17:35:14.092Z,8.30
2023-04-16T17:37:42.210Z,6.00
2023-04-16T17:40:12.631Z,7.40
2023-04-16T17:42:40.731Z,4.40
2023-04-16T17:45:09.608Z,4.10
2023-04-16T17:47:37.803Z,2.30
2023-04-16T17:50:07.304Z,3.10
2023-04-16T17:52:35.660Z,6.80
2023-04-16T17:55:07.771Z,4.70
2023-04-16T18:00:11.378Z,5.60
2023-04-16T18:02:42.795Z,4.80
2023-04-16T18:05:12.146Z,4.90
2023-04-16T18:07:40.453Z,4.20
2023-04-16T18:10:10.073Z,4.70
2023-04-16T18:12:38.029Z,5.60
2023-04-16T18:15:07.227Z,3.30
2023-04-16T18:17:35.549Z,4.10
2023-04-16T18:20:06.154Z,2.20
2023-04-16T18:22:34.442Z,3.70
2023-04-16T18:25:02.502Z,5.40
2023-04-16T18:27:30.549Z,5.30
2023-04-16T18:29:59.499Z,2.00
2023-04-16T18:32:30.841Z,2.50
2023-04-16T18:34:59.569Z,2.20
2023-04-16T18:37:27.567Z,2.00
2023-04-16T18:39:57.777Z,2.70
2023-04-16T18:42:29.730Z,1.80
2023-04-16T18:44:59.472Z,1.70
2023-04-16T18:47:28.035Z,1.70
2023-04-16T18:49:56.094Z,1.30
2023-04-16T18:52:24.165Z,2.60
2023-04-16T18:54:52.121Z,0.80
2023-04-16T18:57:22.758Z,1.30
2023-04-16T18:59:50.736Z,1.50
2023-04-16T19:02:18.838Z,2.50
2023-04-16T19:04:47.179Z,0.90
2023-04-16T19:07:15.701Z,2.20
2023-04-16T19:09:43.825Z,2.40
2023-04-16T19:12:12.019Z,2.30
2023-04-16T19:14:40.080Z,3.60
2023-04-16T19:17:08.153Z,2.50
2023-04-16T19:19:36.228Z,1.60
2023-04-16T19:22:04.291Z,1.40
2023-04-16T19:24:34.142Z,2.60
2023-04-16T19:27:02.791Z,2.80
2023-04-16T19:29:35.181Z,1.30
2023-04-16T19:32:03.473Z,1.50
2023-04-16T19:34:31.845Z,0.60
2023-04-16T19:36:59.813Z,1.60
2023-04-16T19:39:31.752Z,2.30
2023-04-16T19:41:59.830Z,1.00
2023-04-16T19:44:27.901Z,2.80
2023-04-16T19:46:56.360Z,2.30
2023-04-16T19:49:25.570Z,0.90
2023-04-16T19:51:53.735Z,2.00
2023-04-16T19:54:22.076Z,2.20
2023-04-16T19:56:53.461Z,2.60
2023-04-16T19:59:21.749Z,2.40
2023-04-16T20:01:50.083Z,2.40
2023-04-16T20:04:18.619Z,2.50
2023-04-16T20:06:46.769Z,1.80
2023-04-16T20:09:14.945Z,2.20
2023-04-16T20:11:43.113Z,1.70
2023-04-16T20:14:11.489Z,0.70
2023-04-16T20:16:39.836Z,1.10
2023-04-16T20:19:09.015Z,1.10
2023-04-16T20:21:37.442Z,0.70
2023-04-16T20:24:10.658Z,1.20
2023-04-16T20:26:39.117Z,0.80
2023-04-16T20:29:07.375Z,1.00
2023-04-16T20:31:35.574Z,1.20
2023-04-16T20:34:04.048Z,1.90
2023-04-16T20:36:32.127Z,3.60
2023-04-16T20:39:02.348Z,3.80
2023-04-16T20:41:31.121Z,2.50
2023-04-16T20:44:05.263Z,2.30
2023-04-16T20:46:36.340Z,1.20
2023-04-16T20:49:06.293Z,2.30
2023-04-16T20:51:34.765Z,4.30
2023-04-16T20:54:03.683Z,1.50
2023-04-16T20:56:31.847Z,3.30
2023-04-16T20:59:00.020Z,3.30
2023-04-16T21:01:28.225Z,1.30
2023-04-16T21:03:57.231Z,2.60
2023-04-16T21:06:25.654Z,1.90
2023-04-16T21:08:53.616Z,1.40
2023-04-16T21:11:21.588Z,2.20
2023-04-16T21:13:49.557Z,0.90
2023-04-16T21:16:18.693Z,1.00
2023-04-16T21:18:46.835Z,1.00
2023-04-16T21:21:14.998Z,1.40
2023-04-16T21:23:43.031Z,0.90
2023-04-16T21:26:11.260Z,1.20
2023-04-16T21:28:39.325Z,0.70
2023-04-16T21:31:07.530Z,1.10
2023-04-16T21:33:36.172Z,2.40
2023-04-16T21:36:04.448Z,1.40
2023-04-16T21:38:32.648Z,1.60
2023-04-16T21:41:01.706Z,1.70
2023-04-16T21:43:32.652Z,0.90
2023-04-16T21:46:00.725Z,2.20
2023-04-16T21:48:28.897Z,0.50
2023-04-16T21:50:59.882Z,1.30
2023-04-16T21:53:32.115Z,1.80
2023-04-16T21:56:00.906Z,3.90
2023-04-16T21:58:29.055Z,1.20
2023-04-16T22:00:57.176Z,1.40
2023-04-16T22:03:26.604Z,1.30
2023-04-16T22:06:01.277Z,1.80
2023-04-16T22:08:30.609Z,1.20
2023-04-16T22:11:00.551Z,2.60
2023-04-16T22:13:32.413Z,3.30
2023-04-16T22:16:04.138Z,1.50
2023-04-16T22:18:33.152Z,1.60
2023-04-16T22:21:01.845Z,2.50
2023-04-16T22:23:30.040Z,1.60
2023-04-16T22:25:58.010Z,3.40
2023-04-16T22:28:25.942Z,3.60
2023-04-16T22:30:54.051Z,3.90
2023-04-16T22:33:22.328Z,1.70
2023-04-16T22:35:50.393Z,1.20
2023-04-16T22:38:18.463Z,1.90
2023-04-16T22:40:51.757Z,2.10
2023-04-16T22:43:19.938Z,2.70
2023-04-16T22:45:48.234Z,3.80
2023-04-16T22:48:16.496Z,4.80
2023-04-16T22:50:48.766Z,2.80
2023-04-16T22:53:17.132Z,4.00
2023-04-16T22:55:45.092Z,3.10
2023-04-16T22:58:13.135Z,3.90
2023-04-16T23:00:41.227Z,2.60
2023-04-16T23:03:09.712Z,2.20
2023-04-16T23:05:37.753Z,3.40
2023-04-16T23:08:06.163Z,3.90
2023-04-16T23:10:34.249Z,3.10
2023-04-16T23:13:02.710Z,4.20
2023-04-16T23:15:31.194Z,5.60
2023-04-16T23:17:59.432Z,3.00
2023-04-16T23:20:29.413Z,3.80
2023-04-16T23:22:57.668Z,4.30
2023-04-16T23:25:25.799Z,4.20
2023-04-16T23:27:53.796Z,3.90
2023-04-16T23:30:21.835Z,3.60
2023-04-16T23:32:50.034Z,3.70
2023-04-16T23:35:22.970Z,3.30
2023-04-16T23:37:51.728Z,4.70
2023-04-16T23:40:19.816Z,3.50
2023-04-16T23:42:47.862Z,2.70
2023-04-16T23:45:16.275Z,2.90
2023-04-16T23:47:44.795Z,3.90
2023-04-16T23:50:13.186Z,4.80
2023-04-16T23:52:41.367Z,3.20
2023-04-16T23:55:09.652Z,4.10
2023-04-16T23:57:38.123Z,2.60
